Time;durP1;ratioP1;P1;durP2;ratioP2;P2;SDS_P1;SDS_P2;PMS_P1;PMS_P2;Temp;Humidity;BMP_temperature;BMP_pressure;BME280_temperature;BME280_humidity;BME280_pressure;Samples;Min_cycle;Max_cycle;Signal;HPM_P1;HPM_P2
2022/07/20 00:00:25;;;;;;;11.25;8.60;;;;;;;;;;5006560;28;20117;-43
2022/07/20 00:02:51;;;;;;;10.25;8.52;;;;;;;;;;5006252;28;20034;-43
2022/07/20 00:05:16;;;;;;;10.25;8.15;;;;;;;;;;5006708;28;20048;-45
2022/07/20 00:07:42;;;;;;;20.80;8.77;;;;;;;;;;4998655;28;20117;-48
2022/07/20 00:12:52;;;;;;;12.40;9.40;;;;;;;;;;5007391;28;20473;-45
2022/07/20 00:15:18;;;;;;;14.10;8.80;;;;;;;;;;5006873;28;20104;-43
2022/07/20 00:17:44;;;;;;;16.70;9.05;;;;;;;;;;5007772;28;20041;-44
2022/07/20 00:20:10;;;;;;;11.93;9.13;;;;;;;;;;5007232;28;20069;-42
2022/07/20 00:22:36;;;;;;;9.35;8.50;;;;;;;;;;5006648;28;20064;-42
2022/07/20 00:25:03;;;;;;;9.40;8.35;;;;;;;;;;5006035;28;20032;-43
2022/07/20 00:27:29;;;;;;;13.35;8.65;;;;;;;;;;5007794;28;20474;-45
2022/07/20 00:29:55;;;;;;;11.10;8.00;;;;;;;;;;5007083;28;20041;-44
2022/07/20 00:32:21;;;;;;;12.25;8.30;;;;;;;;;;5008142;28;20518;-45
2022/07/20 00:34:47;;;;;;;10.77;8.70;;;;;;;;;;5008110;28;20161;-42
2022/07/20 00:37:12;;;;;;;9.27;8.38;;;;;;;;;;5009681;28;20109;-44
2022/07/20 00:39:38;;;;;;;11.20;8.13;;;;;;;;;;5010059;28;20095;-43
2022/07/20 00:42:04;;;;;;;9.65;8.75;;;;;;;;;;5008007;28;20428;-42
2022/07/20 00:44:30;;;;;;;12.18;8.18;;;;;;;;;;5008925;28;20065;-43
2022/07/20 00:46:55;;;;;;;9.38;8.57;;;;;;;;;;5010966;28;20079;-47
2022/07/20 00:49:22;;;;;;;9.00;8.10;;;;;;;;;;5010505;28;20030;-44
2022/07/20 00:51:48;;;;;;;9.93;9.00;;;;;;;;;;5009915;28;20038;-41
2022/07/20 00:54:14;;;;;;;11.73;9.07;;;;;;;;;;5010507;28;20778;-43
2022/07/20 00:56:40;;;;;;;10.63;8.40;;;;;;;;;;5010396;28;20131;-47
2022/07/20 00:59:08;;;;;;;10.27;8.48;;;;;;;;;;5009035;28;20483;-42
2022/07/20 01:01:34;;;;;;;13.13;9.00;;;;;;;;;;5009394;28;20057;-47
2022/07/20 01:04:01;;;;;;;10.75;9.10;;;;;;;;;;5009473;28;20462;-43
2022/07/20 01:06:27;;;;;;;9.18;8.18;;;;;;;;;;5008477;28;20041;-43
2022/07/20 01:08:53;;;;;;;9.60;8.32;;;;;;;;;;5009929;28;20048;-48
2022/07/20 01:11:19;;;;;;;9.60;8.63;;;;;;;;;;5010787;28;20460;-47
2022/07/20 01:13:45;;;;;;;9.00;8.05;;;;;;;;;;5010536;28;20034;-43
2022/07/20 01:16:11;;;;;;;8.80;7.95;;;;;;;;;;5005123;28;20042;-44
2022/07/20 01:18:36;;;;;;;16.60;9.35;;;;;;;;;;5009784;28;20033;-45
2022/07/20 01:21:04;;;;;;;12.88;8.27;;;;;;;;;;5011057;28;20037;-42
2022/07/20 01:23:30;;;;;;;9.40;7.53;;;;;;;;;;5009910;28;20022;-44
2022/07/20 01:25:57;;;;;;;11.98;8.00;;;;;;;;;;5008527;28;20026;-47
2022/07/20 01:28:23;;;;;;;11.57;8.77;;;;;;;;;;5010085;28;20093;-47
2022/07/20 01:30:49;;;;;;;9.45;8.68;;;;;;;;;;5009775;28;20018;-42
2022/07/20 01:33:15;;;;;;;12.20;9.18;;;;;;;;;;5005863;28;20033;-44
2022/07/20 01:35:40;;;;;;;10.60;8.98;;;;;;;;;;5008630;28;20036;-44
2022/07/20 01:38:06;;;;;;;10.63;9.40;;;;;;;;;;5007709;28;20030;-45
2022/07/20 01:40:32;;;;;;;10.95;9.32;;;;;;;;;;5007787;28;20083;-41
2022/07/20 01:42:58;;;;;;;10.75;9.50;;;;;;;;;;5009133;28;20042;-46
2022/07/20 01:45:24;;;;;;;9.77;8.85;;;;;;;;;;5009360;28;20107;-42
2022/07/20 01:47:49;;;;;;;8.75;7.95;;;;;;;;;;5009584;28;20026;-45
2022/07/20 01:50:15;;;;;;;13.25;9.00;;;;;;;;;;5006655;28;20080;-45
2022/07/20 01:52:41;;;;;;;9.38;8.48;;;;;;;;;;5009593;28;20033;-44
2022/07/20 01:55:07;;;;;;;12.25;9.10;;;;;;;;;;5008729;28;20045;-43
2022/07/20 01:57:33;;;;;;;10.05;8.57;;;;;;;;;;5009319;28;20075;-46
2022/07/20 01:59:58;;;;;;;9.57;8.60;;;;;;;;;;5010167;28;20049;-48
2022/07/20 02:02:24;;;;;;;11.48;8.98;;;;;;;;;;5008784;28;20368;-46
2022/07/20 02:04:50;;;;;;;10.52;9.20;;;;;;;;;;5008937;28;20037;-42
2022/07/20 02:07:15;;;;;;;12.90;8.90;;;;;;;;;;5008067;28;20053;-43
2022/07/20 02:09:41;;;;;;;9.45;8.55;;;;;;;;;;5007635;28;20072;-44
2022/07/20 02:12:07;;;;;;;9.43;8.52;;;;;;;;;;5008528;28;20096;-43
2022/07/20 02:14:33;;;;;;;17.23;9.43;;;;;;;;;;5006930;28;20033;-42
2022/07/20 02:16:58;;;;;;;9.77;8.70;;;;;;;;;;5009603;28;20081;-47
2022/07/20 02:19:24;;;;;;;10.40;9.02;;;;;;;;;;5007461;28;20030;-42
2022/07/20 02:21:50;;;;;;;11.10;9.57;;;;;;;;;;5008975;28;20466;-44
2022/07/20 02:24:15;;;;;;;15.82;9.73;;;;;;;;;;5007435;28;20038;-43
2022/07/20 02:26:41;;;;;;;17.00;9.55;;;;;;;;;;5008507;28;20029;-44
2022/07/20 02:29:07;;;;;;;11.88;9.60;;;;;;;;;;5008701;28;20470;-42
2022/07/20 02:31:33;;;;;;;12.02;9.73;;;;;;;;;;5009550;28;20096;-44
2022/07/20 02:33:58;;;;;;;11.13;9.68;;;;;;;;;;5007023;28;20914;-41
2022/07/20 02:36:24;;;;;;;10.35;9.23;;;;;;;;;;5009553;28;20033;-42
2022/07/20 02:38:50;;;;;;;10.77;9.77;;;;;;;;;;5004895;28;20080;-44
2022/07/20 02:41:15;;;;;;;16.25;10.45;;;;;;;;;;5002628;28;20045;-41
2022/07/20 02:43:41;;;;;;;11.10;9.82;;;;;;;;;;5008843;28;20049;-42
2022/07/20 02:46:07;;;;;;;11.48;10.38;;;;;;;;;;5008928;28;20030;-42
2022/07/20 02:48:33;;;;;;;15.73;10.25;;;;;;;;;;5004779;28;20034;-42
2022/07/20 02:50:58;;;;;;;13.30;9.85;;;;;;;;;;5007522;28;20121;-42
2022/07/20 02:53:24;;;;;;;13.52;9.85;;;;;;;;;;5009231;28;20120;-47
2022/07/20 02:55:49;;;;;;;10.30;9.30;;;;;;;;;;5004714;28;20045;-44
2022/07/20 02:58:15;;;;;;;11.27;10.25;;;;;;;;;;5006208;28;20034;-42
2022/07/20 03:00:41;;;;;;;12.05;10.85;;;;;;;;;;5009833;28;20041;-42
2022/07/20 03:03:09;;;;;;;11.25;10.20;;;;;;;;;;5009262;28;20034;-43
2022/07/20 03:05:35;;;;;;;11.57;10.45;;;;;;;;;;5007332;28;20030;-43
2022/07/20 03:08:00;;;;;;;14.43;9.52;;;;;;;;;;5009581;28;20033;-42
2022/07/20 03:10:26;;;;;;;13.90;9.73;;;;;;;;;;5007259;28;20034;-44
2022/07/20 03:12:52;;;;;;;13.75;9.82;;;;;;;;;;5007323;28;20125;-45
2022/07/20 03:15:18;;;;;;;11.65;10.35;;;;;;;;;;5005658;28;20030;-43
2022/07/20 03:17:47;;;;;;;11.80;10.57;;;;;;;;;;5007925;28;20032;-42
2022/07/20 03:20:17;;;;;;;11.68;10.52;;;;;;;;;;5006043;28;20021;-43
2022/07/20 03:22:43;;;;;;;13.77;12.05;;;;;;;;;;5003339;28;20022;-44
2022/07/20 03:25:09;;;;;;;12.18;10.93;;;;;;;;;;5006841;28;20025;-47
2022/07/20 03:27:35;;;;;;;12.10;10.20;;;;;;;;;;5006278;28;20628;-43
2022/07/20 03:30:03;;;;;;;17.13;10.55;;;;;;;;;;4999895;28;20038;-44
2022/07/20 03:32:29;;;;;;;13.57;10.82;;;;;;;;;;5006817;28;20498;-43
2022/07/20 03:34:55;;;;;;;13.70;11.70;;;;;;;;;;5007592;28;20026;-42
2022/07/20 03:37:21;;;;;;;14.38;12.27;;;;;;;;;;5004612;28;20018;-42
2022/07/20 03:39:46;;;;;;;17.15;11.30;;;;;;;;;;5008206;28;20040;-42
2022/07/20 03:42:12;;;;;;;12.45;10.85;;;;;;;;;;5005600;28;20036;-42
2022/07/20 03:44:38;;;;;;;15.60;12.00;;;;;;;;;;5007153;28;20072;-43
2022/07/20 03:47:03;;;;;;;14.18;11.80;;;;;;;;;;5003869;28;20364;-43
2022/07/20 03:49:29;;;;;;;15.80;11.88;;;;;;;;;;5007012;28;20050;-44
2022/07/20 03:51:55;;;;;;;12.93;11.63;;;;;;;;;;5008476;28;20036;-42
2022/07/20 03:54:20;;;;;;;12.68;11.20;;;;;;;;;;5009826;28;20030;-42
2022/07/20 03:56:46;;;;;;;16.02;11.27;;;;;;;;;;5004069;28;20525;-44
2022/07/20 03:59:12;;;;;;;15.50;10.98;;;;;;;;;;5007493;28;20483;-43
2022/07/20 04:01:38;;;;;;;14.07;10.75;;;;;;;;;;5006076;28;20491;-42
2022/07/20 04:04:04;;;;;;;18.15;11.10;;;;;;;;;;5005280;28;20030;-42
2022/07/20 04:06:30;;;;;;;13.23;10.15;;;;;;;;;;5003250;28;20069;-43
2022/07/20 04:08:56;;;;;;;13.20;10.82;;;;;;;;;;5012388;28;20056;-43
2022/07/20 04:11:22;;;;;;;12.07;10.82;;;;;;;;;;5011362;28;20113;-45
2022/07/20 04:14:04;;;;;;;15.60;10.88;;;;;;;;;;5011146;28;20616;-46
2022/07/20 04:16:31;;;;;;;12.75;10.25;;;;;;;;;;5009286;28;20129;-44
2022/07/20 04:18:59;;;;;;;15.13;10.15;;;;;;;;;;5011354;28;20605;-42
2022/07/20 04:21:24;;;;;;;11.27;10.32;;;;;;;;;;5007170;28;20029;-46
2022/07/20 04:23:50;;;;;;;11.25;10.05;;;;;;;;;;5011325;28;20040;-43
2022/07/20 04:26:16;;;;;;;13.25;10.32;;;;;;;;;;5010055;28;20271;-42
2022/07/20 04:28:41;;;;;;;12.10;10.30;;;;;;;;;;5010894;28;20049;-45
2022/07/20 04:31:07;;;;;;;16.13;10.00;;;;;;;;;;5009832;28;20024;-44
2022/07/20 04:33:33;;;;;;;11.55;9.68;;;;;;;;;;5010757;28;20066;-42
2022/07/20 04:35:58;;;;;;;10.50;9.40;;;;;;;;;;5005796;28;20080;-44
2022/07/20 04:38:24;;;;;;;17.08;9.57;;;;;;;;;;4999878;28;20068;-42
2022/07/20 04:40:50;;;;;;;13.25;9.20;;;;;;;;;;5011518;28;20069;-43
2022/07/20 04:43:15;;;;;;;11.38;10.18;;;;;;;;;;5008689;28;20104;-41
2022/07/20 04:45:41;;;;;;;12.75;10.27;;;;;;;;;;5010448;28;20037;-41
2022/07/20 04:48:07;;;;;;;11.75;9.77;;;;;;;;;;5007684;28;20030;-41
2022/07/20 04:50:32;;;;;;;10.90;9.82;;;;;;;;;;5010625;28;20096;-41
2022/07/20 04:52:58;;;;;;;13.13;10.13;;;;;;;;;;5009700;28;20081;-44
2022/07/20 04:55:24;;;;;;;11.23;9.98;;;;;;;;;;5009816;28;20457;-41
2022/07/20 04:57:49;;;;;;;11.65;9.82;;;;;;;;;;5008616;28;20053;-45
2022/07/20 05:00:16;;;;;;;15.35;9.77;;;;;;;;;;5013240;28;20486;-42
2022/07/20 05:02:42;;;;;;;13.43;10.45;;;;;;;;;;5010037;28;20033;-42
2022/07/20 05:05:08;;;;;;;13.70;10.43;;;;;;;;;;5009112;28;20359;-43
2022/07/20 05:07:34;;;;;;;11.95;9.80;;;;;;;;;;5010556;28;20466;-42
2022/07/20 05:09:59;;;;;;;13.35;10.40;;;;;;;;;;5010362;28;20029;-42
2022/07/20 05:12:25;;;;;;;11.95;10.43;;;;;;;;;;5009680;28;20041;-42
2022/07/20 05:14:51;;;;;;;12.32;10.02;;;;;;;;;;5008217;28;20071;-44
2022/07/20 05:17:16;;;;;;;13.70;10.18;;;;;;;;;;5006945;28;20026;-41
2022/07/20 05:19:42;;;;;;;10.10;9.10;;;;;;;;;;5009518;28;20045;-42
2022/07/20 05:22:08;;;;;;;11.75;9.40;;;;;;;;;;5009735;28;20034;-40
2022/07/20 05:24:33;;;;;;;12.20;9.75;;;;;;;;;;5010157;28;20030;-42
2022/07/20 05:26:59;;;;;;;11.55;9.90;;;;;;;;;;5010516;28;20030;-41
2022/07/20 05:29:25;;;;;;;12.20;9.45;;;;;;;;;;5007445;28;20029;-42
2022/07/20 05:31:51;;;;;;;16.50;10.10;;;;;;;;;;5005275;28;20104;-42
2022/07/20 05:34:17;;;;;;;13.52;10.15;;;;;;;;;;5004248;28;20068;-43
2022/07/20 05:36:42;;;;;;;12.38;9.68;;;;;;;;;;5008994;28;20041;-40
2022/07/20 05:39:09;;;;;;;10.65;9.38;;;;;;;;;;5009084;28;20033;-42
2022/07/20 05:41:35;;;;;;;14.40;10.13;;;;;;;;;;5004727;28;20394;-45
2022/07/20 05:44:01;;;;;;;10.00;8.40;;;;;;;;;;5000538;28;20049;-42
2022/07/20 05:46:28;;;;;;;10.75;8.77;;;;;;;;;;4997769;28;20126;-42
2022/07/20 05:48:53;;;;;;;9.18;8.32;;;;;;;;;;4996110;28;20049;-42
2022/07/20 05:51:19;;;;;;;11.05;9.32;;;;;;;;;;5002870;28;20589;-43
2022/07/20 05:53:45;;;;;;;17.92;9.60;;;;;;;;;;4993099;28;20033;-44
2022/07/20 05:56:10;;;;;;;12.00;8.55;;;;;;;;;;5005948;28;20559;-42
2022/07/20 05:58:37;;;;;;;18.83;8.35;;;;;;;;;;5010409;28;20026;-43
2022/07/20 06:01:03;;;;;;;13.13;8.45;;;;;;;;;;5012379;28;20096;-45
2022/07/20 06:03:29;;;;;;;10.48;8.32;;;;;;;;;;5007958;28;20033;-47
2022/07/20 06:05:54;;;;;;;9.95;8.95;;;;;;;;;;5004803;28;20045;-44
2022/07/20 06:08:20;;;;;;;24.52;9.02;;;;;;;;;;4990956;28;20571;-45
2022/07/20 06:10:46;;;;;;;16.27;8.57;;;;;;;;;;5004026;28;20049;-42
2022/07/20 06:13:12;;;;;;;17.45;9.02;;;;;;;;;;5005617;28;20041;-46
2022/07/20 06:15:39;;;;;;;11.38;8.98;;;;;;;;;;5008166;28;20161;-48
2022/07/20 06:18:06;;;;;;;16.17;8.65;;;;;;;;;;5008793;28;20026;-46
2022/07/20 06:20:32;;;;;;;20.48;9.30;;;;;;;;;;5008222;28;20364;-45
2022/07/20 06:22:58;;;;;;;11.77;8.93;;;;;;;;;;5008940;28;20033;-45
2022/07/20 06:25:24;;;;;;;14.85;8.35;;;;;;;;;;5009556;28;20030;-49
2022/07/20 06:27:50;;;;;;;12.95;9.05;;;;;;;;;;5007414;28;20029;-47
2022/07/20 06:30:16;;;;;;;16.27;8.68;;;;;;;;;;5000635;28;20062;-48
2022/07/20 06:32:41;;;;;;;9.60;8.77;;;;;;;;;;5009196;28;20029;-47
2022/07/20 06:35:08;;;;;;;18.60;9.27;;;;;;;;;;5008794;28;20109;-44
2022/07/20 06:37:34;;;;;;;13.75;8.75;;;;;;;;;;5002772;28;20478;-42
2022/07/20 06:40:00;;;;;;;18.98;10.10;;;;;;;;;;5005964;28;20030;-50
2022/07/20 06:42:25;;;;;;;11.52;10.05;;;;;;;;;;5003865;28;20113;-45
2022/07/20 06:44:51;;;;;;;14.25;9.75;;;;;;;;;;5003971;28;20041;-43
2022/07/20 06:47:17;;;;;;;12.57;9.05;;;;;;;;;;5009609;28;20164;-42
2022/07/20 06:49:43;;;;;;;20.88;10.23;;;;;;;;;;5008373;28;20029;-44
2022/07/20 06:52:08;;;;;;;13.02;9.02;;;;;;;;;;5002334;28;20038;-46
2022/07/20 06:54:34;;;;;;;12.27;8.40;;;;;;;;;;5012187;28;20046;-45
2022/07/20 06:57:00;;;;;;;10.30;9.20;;;;;;;;;;5008926;28;20054;-45
2022/07/20 06:59:26;;;;;;;11.07;9.85;;;;;;;;;;5007509;28;20119;-42
2022/07/20 07:01:51;;;;;;;15.50;9.50;;;;;;;;;;5007509;28;20061;-44
2022/07/20 07:04:17;;;;;;;14.63;8.57;;;;;;;;;;5009901;28;20029;-50
2022/07/20 07:06:43;;;;;;;11.27;7.97;;;;;;;;;;5004893;28;20034;-46
2022/07/20 07:09:09;;;;;;;10.45;8.15;;;;;;;;;;5007618;28;20030;-44
2022/07/20 07:11:35;;;;;;;12.70;8.15;;;;;;;;;;5007395;28;20083;-42
2022/07/20 07:14:02;;;;;;;9.48;8.48;;;;;;;;;;5007408;28;20471;-43
2022/07/20 07:16:28;;;;;;;13.57;7.93;;;;;;;;;;5007925;28;20032;-43
2022/07/20 07:18:54;;;;;;;11.48;7.40;;;;;;;;;;5005801;28;20030;-43
2022/07/20 07:21:19;;;;;;;13.48;7.80;;;;;;;;;;5007801;28;20022;-44
2022/07/20 07:23:49;;;;;;;8.93;7.70;;;;;;;;;;5003353;28;20042;-43
2022/07/20 07:26:19;;;;;;;8.20;7.38;;;;;;;;;;5006829;28;20026;-43
2022/07/20 07:28:45;;;;;;;16.65;8.43;;;;;;;;;;5006525;28;20029;-47
2022/07/20 07:31:11;;;;;;;12.55;8.32;;;;;;;;;;5007781;28;20040;-42
2022/07/20 07:33:37;;;;;;;16.27;8.27;;;;;;;;;;5007762;28;20450;-47
2022/07/20 07:36:04;;;;;;;10.68;8.23;;;;;;;;;;5006275;28;20097;-42
2022/07/20 07:38:30;;;;;;;9.88;7.38;;;;;;;;;;5004258;28;20040;-43
2022/07/20 07:40:56;;;;;;;14.65;8.05;;;;;;;;;;5007458;28;20065;-48
2022/07/20 07:43:22;;;;;;;16.00;7.82;;;;;;;;;;5006322;28;20499;-44
2022/07/20 07:45:47;;;;;;;14.77;6.88;;;;;;;;;;5008460;28;20026;-42
2022/07/20 07:48:13;;;;;;;11.85;7.03;;;;;;;;;;5008037;28;20116;-45
2022/07/20 07:50:40;;;;;;;13.60;7.07;;;;;;;;;;5007814;28;20056;-46
2022/07/20 07:53:07;;;;;;;11.63;6.88;;;;;;;;;;5004405;28;20075;-43
2022/07/20 07:55:34;;;;;;;10.65;6.45;;;;;;;;;;5005468;28;20081;-43
2022/07/20 07:58:00;;;;;;;10.82;6.70;;;;;;;;;;5006222;28;20038;-43
2022/07/20 08:00:26;;;;;;;11.20;7.38;;;;;;;;;;5008841;28;20042;-45
2022/07/20 08:02:52;;;;;;;10.10;6.00;;;;;;;;;;5006103;28;20037;-47
2022/07/20 08:05:17;;;;;;;10.23;6.13;;;;;;;;;;5006131;28;20134;-43
2022/07/20 08:07:43;;;;;;;9.00;5.25;;;;;;;;;;5006969;28;20467;-42
2022/07/20 08:10:09;;;;;;;7.80;4.40;;;;;;;;;;5005608;28;20030;-42
2022/07/20 08:12:36;;;;;;;7.63;4.95;;;;;;;;;;5002790;28;20026;-42
2022/07/20 08:15:02;;;;;;;7.60;5.03;;;;;;;;;;5006825;28;20034;-43
2022/07/20 08:17:28;;;;;;;5.22;4.57;;;;;;;;;;5007283;28;20057;-44
2022/07/20 08:19:54;;;;;;;7.15;4.57;;;;;;;;;;5007462;28;20026;-45
2022/07/20 08:22:19;;;;;;;6.60;4.15;;;;;;;;;;5007176;28;20026;-49
2022/07/20 08:24:45;;;;;;;4.45;4.05;;;;;;;;;;5005388;28;20872;-43
2022/07/20 08:27:11;;;;;;;5.30;3.55;;;;;;;;;;5004235;28;20666;-43
2022/07/20 08:29:37;;;;;;;10.50;4.30;;;;;;;;;;5006452;28;20033;-42
2022/07/20 08:32:03;;;;;;;4.32;3.78;;;;;;;;;;5007229;28;20513;-42
2022/07/20 08:34:29;;;;;;;4.65;4.22;;;;;;;;;;5005911;28;20030;-42
2022/07/20 08:36:54;;;;;;;6.28;4.18;;;;;;;;;;5006319;28;20030;-42
2022/07/20 08:39:20;;;;;;;12.55;4.63;;;;;;;;;;5007334;28;20029;-42
2022/07/20 08:41:46;;;;;;;5.15;4.63;;;;;;;;;;5007144;28;20046;-45
2022/07/20 08:44:12;;;;;;;7.60;4.35;;;;;;;;;;5004157;28;20643;-42
2022/07/20 08:46:38;;;;;;;10.75;4.70;;;;;;;;;;5005939;28;20076;-43
2022/07/20 08:49:04;;;;;;;7.03;4.57;;;;;;;;;;5002672;28;20505;-44
2022/07/20 08:51:30;;;;;;;11.15;4.70;;;;;;;;;;5002426;28;20026;-44
2022/07/20 08:53:56;;;;;;;11.32;5.43;;;;;;;;;;5007214;28;20387;-42
2022/07/20 08:56:23;;;;;;;9.55;5.38;;;;;;;;;;5009188;28;20040;-42
2022/07/20 08:58:48;;;;;;;9.25;5.13;;;;;;;;;;5012082;28;21140;-42
2022/07/20 09:01:18;;;;;;;6.65;5.53;;;;;;;;;;5006750;28;20125;-43
2022/07/20 09:04:11;;;;;;;11.13;5.40;;;;;;;;;;5007013;28;20556;-41
2022/07/20 09:06:47;;;;;;;8.57;4.85;;;;;;;;;;5009863;28;20029;-44
2022/07/20 09:09:13;;;;;;;11.82;5.32;;;;;;;;;;5009356;28;20038;-46
2022/07/20 09:11:39;;;;;;;12.70;5.30;;;;;;;;;;5010251;28;20141;-43
2022/07/20 09:14:05;;;;;;;10.45;5.10;;;;;;;;;;5010123;28;20516;-45
2022/07/20 09:16:42;;;;;;;11.13;4.93;;;;;;;;;;5010009;28;20018;-42
2022/07/20 09:19:09;;;;;;;7.45;5.25;;;;;;;;;;5006703;28;20030;-43
2022/07/20 09:21:35;;;;;;;11.70;5.22;;;;;;;;;;5009004;28;20061;-45
2022/07/20 09:24:04;;;;;;;11.65;5.40;;;;;;;;;;5009062;28;20367;-43
2022/07/20 09:26:31;;;;;;;5.72;5.18;;;;;;;;;;5009997;28;20048;-44
2022/07/20 09:28:58;;;;;;;7.40;4.53;;;;;;;;;;5010058;28;20038;-42
2022/07/20 09:31:30;;;;;;;11.20;4.68;;;;;;;;;;5010030;28;20064;-43
2022/07/20 09:33:59;;;;;;;8.98;4.78;;;;;;;;;;5006656;28;20040;-42
2022/07/20 09:36:28;;;;;;;8.85;4.70;;;;;;;;;;5006170;28;20058;-43
2022/07/20 09:39:04;;;;;;;11.18;4.90;;;;;;;;;;5009070;28;20076;-43
2022/07/20 09:41:32;;;;;;;12.50;5.30;;;;;;;;;;5010605;28;20084;-42
2022/07/20 09:43:59;;;;;;;5.95;4.70;;;;;;;;;;5009105;28;20057;-49
2022/07/20 09:46:30;;;;;;;8.40;5.30;;;;;;;;;;5007458;28;20034;-42
2022/07/20 09:48:58;;;;;;;9.00;5.13;;;;;;;;;;5007232;28;20032;-44
2022/07/20 09:51:32;;;;;;;9.82;4.82;;;;;;;;;;5008431;28;20419;-47
2022/07/20 09:54:08;;;;;;;8.35;5.00;;;;;;;;;;5009683;28;20037;-42
2022/07/20 09:56:38;;;;;;;11.38;5.43;;;;;;;;;;5007950;28;20711;-43
2022/07/20 09:59:07;;;;;;;8.73;5.10;;;;;;;;;;5008770;28;20034;-43
2022/07/20 10:01:39;;;;;;;8.10;4.90;;;;;;;;;;5005363;28;20037;-42
2022/07/20 10:04:07;;;;;;;20.60;5.35;;;;;;;;;;5006123;28;20041;-45
2022/07/20 10:06:36;;;;;;;11.15;4.82;;;;;;;;;;5009425;28;20358;-45
2022/07/20 10:09:03;;;;;;;10.50;4.90;;;;;;;;;;5006601;28;20030;-44
2022/07/20 10:11:29;;;;;;;10.48;4.72;;;;;;;;;;5006331;28;20029;-47
2022/07/20 10:13:58;;;;;;;6.55;4.47;;;;;;;;;;5009501;28;20038;-42
2022/07/20 10:16:44;;;;;;;5.68;5.18;;;;;;;;;;5007990;28;20040;-46
2022/07/20 10:19:10;;;;;;;9.13;4.88;;;;;;;;;;5006902;28;20030;-42
2022/07/20 10:21:36;;;;;;;10.18;4.72;;;;;;;;;;5007804;28;20071;-43
2022/07/20 10:24:22;;;;;;;5.85;4.80;;;;;;;;;;5009306;28;20030;-42
2022/07/20 10:27:06;;;;;;;7.65;5.07;;;;;;;;;;5008864;28;20029;-42
2022/07/20 10:29:34;;;;;;;12.70;5.38;;;;;;;;;;5005717;28;20038;-42
2022/07/20 10:32:23;;;;;;;9.68;5.80;;;;;;;;;;5003114;28;20069;-43
2022/07/20 10:34:49;;;;;;;9.32;5.20;;;;;;;;;;5007743;28;20022;-42
2022/07/20 10:37:20;;;;;;;7.53;4.97;;;;;;;;;;5007981;28;20036;-43
2022/07/20 10:39:47;;;;;;;10.57;5.28;;;;;;;;;;5007883;28;20470;-42
2022/07/20 10:42:31;;;;;;;7.22;5.30;;;;;;;;;;5008212;28;20045;-42
2022/07/20 10:45:20;;;;;;;10.60;5.75;;;;;;;;;;5006309;28;20033;-42
2022/07/20 10:47:48;;;;;;;6.03;5.30;;;;;;;;;;5000799;28;20092;-42
2022/07/20 10:50:17;;;;;;;10.40;5.72;;;;;;;;;;5008012;28;20034;-43
2022/07/20 10:52:45;;;;;;;13.45;5.78;;;;;;;;;;5011702;28;20029;-42
2022/07/20 10:55:33;;;;;;;8.13;5.82;;;;;;;;;;5005344;28;20065;-42
2022/07/20 10:58:02;;;;;;;6.53;5.57;;;;;;;;;;5005532;28;20141;-43
2022/07/20 11:00:41;;;;;;;6.07;5.53;;;;;;;;;;5006936;28;20104;-42
2022/07/20 11:03:15;;;;;;;11.38;5.85;;;;;;;;;;5004947;28;20048;-42
2022/07/20 11:05:43;;;;;;;6.78;4.82;;;;;;;;;;5007236;28;20552;-42
2022/07/20 11:08:10;;;;;;;5.72;5.22;;;;;;;;;;5006415;28;20037;-45
2022/07/20 11:10:38;;;;;;;8.88;5.07;;;;;;;;;;5008293;28;20068;-44
2022/07/20 11:13:06;;;;;;;10.50;5.28;;;;;;;;;;5005971;28;20036;-42
2022/07/20 11:15:49;;;;;;;9.80;5.30;;;;;;;;;;5004693;28;20082;-42
2022/07/20 11:18:20;;;;;;;10.38;4.63;;;;;;;;;;5007243;28;20040;-42
2022/07/20 11:20:51;;;;;;;5.45;4.70;;;;;;;;;;5007826;28;20160;-42
2022/07/20 11:23:24;;;;;;;8.13;4.50;;;;;;;;;;5007708;28;20041;-42
2022/07/20 11:25:55;;;;;;;5.40;4.50;;;;;;;;;;5008170;28;20137;-43
2022/07/20 11:28:27;;;;;;;4.68;4.28;;;;;;;;;;5008018;28;20196;-42
2022/07/20 11:30:54;;;;;;;7.35;4.03;;;;;;;;;;5001116;28;20087;-43
2022/07/20 11:33:30;;;;;;;6.40;4.00;;;;;;;;;;5005512;28;20034;-44
2022/07/20 11:36:07;;;;;;;6.22;3.65;;;;;;;;;;5003586;28;20518;-45
2022/07/20 11:38:44;;;;;;;11.68;4.45;;;;;;;;;;5008325;28;20041;-42
2022/07/20 11:41:18;;;;;;;8.80;4.30;;;;;;;;;;5004485;28;20034;-42
2022/07/20 11:43:44;;;;;;;9.90;4.18;;;;;;;;;;5007997;28;20037;-48
2022/07/20 11:46:17;;;;;;;9.68;3.70;;;;;;;;;;5006295;28;20045;-42
2022/07/20 11:48:51;;;;;;;3.85;3.50;;;;;;;;;;5005735;28;20494;-42
2022/07/20 11:51:17;;;;;;;6.88;3.55;;;;;;;;;;5003521;28;20117;-46
2022/07/20 11:53:43;;;;;;;6.40;3.85;;;;;;;;;;5005287;28;20129;-43
2022/07/20 11:56:18;;;;;;;8.60;3.47;;;;;;;;;;5004369;28;20042;-42
2022/07/20 11:58:46;;;;;;;7.32;3.78;;;;;;;;;;5009589;28;20037;-41
2022/07/20 12:01:19;;;;;;;7.00;3.75;;;;;;;;;;5007456;28;20034;-42
2022/07/20 12:03:52;;;;;;;5.35;3.35;;;;;;;;;;5005709;28;20034;-42
2022/07/20 12:06:18;;;;;;;10.93;3.58;;;;;;;;;;5002256;28;20699;-42
2022/07/20 12:08:44;;;;;;;11.10;3.70;;;;;;;;;;5002498;28;20045;-41
2022/07/20 12:11:11;;;;;;;7.38;3.75;;;;;;;;;;5007532;28;20034;-42
2022/07/20 12:13:45;;;;;;;7.38;3.33;;;;;;;;;;5007458;28;20042;-42
2022/07/20 12:16:11;;;;;;;7.22;3.58;;;;;;;;;;5007133;28;20374;-42
2022/07/20 12:18:47;;;;;;;9.02;3.17;;;;;;;;;;5001930;28;20033;-43
2022/07/20 12:21:18;;;;;;;6.15;3.88;;;;;;;;;;5005197;28;20487;-43
2022/07/20 12:23:46;;;;;;;7.95;3.00;;;;;;;;;;5003785;28;20069;-43
2022/07/20 12:26:25;;;;;;;6.57;3.17;;;;;;;;;;5007139;28;20028;-42
2022/07/20 12:28:52;;;;;;;8.02;3.00;;;;;;;;;;5008022;28;20081;-43
2022/07/20 12:31:20;;;;;;;9.52;3.00;;;;;;;;;;5011222;28;20083;-43
2022/07/20 12:34:00;;;;;;;5.25;3.13;;;;;;;;;;5010255;28;20313;-43
2022/07/20 12:36:39;;;;;;;5.28;2.90;;;;;;;;;;5007518;28;20133;-42
2022/07/20 12:39:07;;;;;;;3.00;2.70;;;;;;;;;;5010826;28;20117;-46
2022/07/20 12:41:33;;;;;;;3.35;2.90;;;;;;;;;;5008194;28;20048;-43
2022/07/20 12:43:59;;;;;;;6.82;2.80;;;;;;;;;;5013232;28;20030;-43
2022/07/20 12:46:25;;;;;;;9.40;2.90;;;;;;;;;;5009122;28;20057;-42
2022/07/20 12:48:51;;;;;;;3.95;2.90;;;;;;;;;;5009386;28;20109;-43
2022/07/20 12:51:18;;;;;;;4.03;2.80;;;;;;;;;;5007218;28;20390;-43
2022/07/20 12:53:45;;;;;;;6.03;3.10;;;;;;;;;;5010512;28;20028;-42
2022/07/20 12:56:11;;;;;;;7.10;3.00;;;;;;;;;;5010121;28;20046;-42
2022/07/20 12:58:37;;;;;;;4.32;2.67;;;;;;;;;;5014714;28;20029;-43
2022/07/20 13:01:04;;;;;;;4.35;2.97;;;;;;;;;;5011068;28;20092;-44
2022/07/20 13:03:29;;;;;;;7.40;2.60;;;;;;;;;;5005435;28;20580;-42
2022/07/20 13:05:55;;;;;;;3.30;2.50;;;;;;;;;;5007001;28;20025;-45
2022/07/20 13:08:22;;;;;;;3.78;2.30;;;;;;;;;;5008393;28;20388;-43
2022/07/20 13:10:48;;;;;;;5.22;2.30;;;;;;;;;;5011807;28;20038;-42
2022/07/20 13:13:14;;;;;;;4.57;2.10;;;;;;;;;;5009092;28;20030;-43
2022/07/20 13:15:39;;;;;;;3.03;2.63;;;;;;;;;;5015426;28;20488;-49
2022/07/20 13:18:08;;;;;;;3.88;2.35;;;;;;;;;;5009698;28;20309;-43
2022/07/20 13:20:35;;;;;;;5.63;2.15;;;;;;;;;;5006098;28;20041;-44
2022/07/20 13:23:01;;;;;;;5.22;2.88;;;;;;;;;;5010036;28;20037;-49
2022/07/20 13:25:27;;;;;;;12.48;2.58;;;;;;;;;;5007870;28;20037;-46
2022/07/20 13:27:52;;;;;;;9.85;2.83;;;;;;;;;;5010498;28;20037;-44
2022/07/20 13:30:18;;;;;;;2.70;2.28;;;;;;;;;;5009205;28;20360;-48
2022/07/20 13:32:44;;;;;;;2.53;2.33;;;;;;;;;;5009436;28;20130;-45
2022/07/20 13:35:10;;;;;;;6.70;2.58;;;;;;;;;;5009459;28;20038;-43
2022/07/20 13:37:37;;;;;;;5.15;2.30;;;;;;;;;;5009630;28;20034;-47
2022/07/20 13:40:03;;;;;;;4.32;2.42;;;;;;;;;;5009671;28;20033;-42
2022/07/20 13:42:29;;;;;;;6.20;2.22;;;;;;;;;;5003734;28;20165;-43
2022/07/20 13:44:54;;;;;;;3.50;2.17;;;;;;;;;;5009674;28;20485;-46
2022/07/20 13:47:20;;;;;;;4.47;2.38;;;;;;;;;;5009905;28;20034;-42
2022/07/20 13:49:46;;;;;;;6.85;2.83;;;;;;;;;;5007243;28;20791;-42
2022/07/20 13:52:12;;;;;;;2.88;2.55;;;;;;;;;;5007818;28;20030;-43
2022/07/20 13:54:37;;;;;;;2.83;2.47;;;;;;;;;;5009185;28;20053;-43
2022/07/20 13:57:03;;;;;;;4.03;2.33;;;;;;;;;;5009643;28;20038;-43
2022/07/20 13:59:29;;;;;;;7.88;2.25;;;;;;;;;;5012444;28;20022;-44
2022/07/20 14:01:54;;;;;;;4.25;2.20;;;;;;;;;;5008173;28;20034;-42
2022/07/20 14:04:20;;;;;;;5.80;2.28;;;;;;;;;;5006537;28;20121;-42
2022/07/20 14:06:45;;;;;;;3.58;2.72;;;;;;;;;;5008776;28;20042;-42
2022/07/20 14:09:11;;;;;;;7.40;2.60;;;;;;;;;;5009366;28;20472;-42
2022/07/20 14:11:38;;;;;;;5.75;2.60;;;;;;;;;;5004876;28;20038;-43
2022/07/20 14:14:06;;;;;;;4.50;2.45;;;;;;;;;;5007829;28;20374;-44
2022/07/20 14:16:32;;;;;;;5.43;2.47;;;;;;;;;;5009522;28;20018;-44
2022/07/20 14:18:58;;;;;;;5.13;3.10;;;;;;;;;;5005659;28;20470;-45
2022/07/20 14:21:25;;;;;;;7.43;3.20;;;;;;;;;;5009879;28;20022;-41
2022/07/20 14:23:50;;;;;;;5.00;2.90;;;;;;;;;;5009341;28;20025;-42
2022/07/20 14:26:17;;;;;;;9.32;3.40;;;;;;;;;;5008290;28;20084;-43
2022/07/20 14:28:44;;;;;;;3.90;3.50;;;;;;;;;;5006483;28;20437;-43
2022/07/20 14:31:09;;;;;;;5.78;3.10;;;;;;;;;;5008909;28;20053;-47
2022/07/20 14:33:35;;;;;;;3.90;2.97;;;;;;;;;;5009446;28;20030;-48
2022/07/20 14:36:01;;;;;;;4.30;3.00;;;;;;;;;;5008679;28;20025;-47